createdAt,value
2023-01-17T00:00:31.540Z,967.6953125
2023-01-17T00:01:26.858Z,967.760376
2023-01-17T00:02:25.984Z,967.680481
2023-01-17T00:03:20.444Z,967.7793579
2023-01-17T00:04:20.564Z,967.7871094
2023-01-17T00:06:20.438Z,967.713623
2023-01-17T00:07:12.180Z,967.6771851
2023-01-17T00:08:18.321Z,967.7973633
2023-01-17T00:09:19.379Z,967.7554932
2023-01-17T00:11:16.179Z,967.7160645
2023-01-17T00:12:08.235Z,967.7602539
2023-01-17T00:13:10.620Z,967.8308105
2023-01-17T00:14:05.930Z,967.812439
2023-01-17T00:15:07.982Z,967.864624
2023-01-17T00:16:08.147Z,967.9453735
2023-01-17T00:17:06.683Z,967.892334
2023-01-17T00:18:01.939Z,967.8842773
2023-01-17T00:19:00.103Z,967.8607788
2023-01-17T00:20:05.896Z,967.8765869
2023-01-17T00:21:00.844Z,967.8787231
2023-01-17T00:22:02.790Z,967.9129028
2023-01-17T00:23:05.170Z,967.9129028
2023-01-17T00:24:08.155Z,967.9040527
2023-01-17T00:25:05.842Z,967.8518677
2023-01-17T00:26:03.042Z,967.9009399
2023-01-17T00:27:02.134Z,968.0327148
2023-01-17T00:28:39.016Z,968.0045166
2023-01-17T00:31:20.967Z,967.8891602
2023-01-17T00:31:47.131Z,967.9998169
2023-01-17T00:32:44.889Z,967.8961182
2023-01-17T00:33:48.338Z,967.8795166
2023-01-17T00:34:43.607Z,967.9777832
2023-01-17T00:36:40.137Z,967.8772583
2023-01-17T00:37:34.420Z,967.8900757
2023-01-17T00:38:34.508Z,967.9470215
2023-01-17T00:39:33.016Z,967.9564819
2023-01-17T00:40:40.708Z,968.0656128
2023-01-17T00:41:41.645Z,968.0022583
2023-01-17T00:42:37.037Z,968.0592041
2023-01-17T00:43:31.856Z,968.1374512
2023-01-17T00:44:46.169Z,968.0360718
2023-01-17T00:45:45.248Z,968.0100098
2023-01-17T00:46:45.421Z,968.1010742
2023-01-17T00:47:45.451Z,968.1010742
2023-01-17T00:48:42.952Z,968.0703125
2023-01-17T00:49:41.678Z,968.1746826
2023-01-17T00:51:41.573Z,968.147644
2023-01-17T00:52:40.485Z,968.1524048
2023-01-17T00:53:42.140Z,968.164856
2023-01-17T00:54:40.057Z,968.2849731
2023-01-17T00:56:35.150Z,968.2139893
2023-01-17T00:57:36.247Z,968.2606201
2023-01-17T00:58:31.653Z,968.296875
2023-01-17T00:59:37.041Z,968.3127441
2023-01-17T01:00:28.327Z,968.3127441
2023-01-17T01:01:33.428Z,968.3465576
2023-01-17T01:02:28.504Z,968.3568726
2023-01-17T01:03:28.010Z,968.296875
2023-01-17T01:04:26.105Z,968.3127441
2023-01-17T01:06:18.601Z,968.3956299
2023-01-17T01:07:19.725Z,968.4943848
2023-01-17T01:09:05.648Z,968.4649048
2023-01-17T01:09:26.762Z,968.5363159
2023-01-17T01:10:24.899Z,968.5402832
2023-01-17T01:11:26.665Z,968.5253906
2023-01-17T01:12:24.143Z,968.5539551
2023-01-17T01:13:24.518Z,968.4872437
2023-01-17T01:14:20.339Z,968.6223145
2023-01-17T01:16:28.817Z,968.6623535
2023-01-17T01:17:30.694Z,968.7477417
2023-01-17T01:18:35.156Z,968.7150879
2023-01-17T01:19:34.256Z,968.7637329
2023-01-17T01:20:33.843Z,968.7954712
2023-01-17T01:21:31.386Z,968.8760986
2023-01-17T01:22:31.184Z,968.9748535
2023-01-17T01:23:26.368Z,968.8184204
2023-01-17T01:24:26.278Z,968.9692383
2023-01-17T01:25:28.122Z,968.9657593
2023-01-17T01:26:30.508Z,969.0361938
2023-01-17T01:27:25.730Z,969.0020142
2023-01-17T01:28:28.312Z,968.9714355
2023-01-17T01:29:24.845Z,969.0065918
2023-01-17T01:31:23.843Z,969.1638794
2023-01-17T01:32:24.899Z,969.1583862
2023-01-17T01:33:30.595Z,969.2150879
2023-01-17T01:34:38.311Z,969.1651001
2023-01-17T01:36:30.011Z,969.204834
2023-01-17T01:38:41.689Z,969.2351685
2023-01-17T01:39:02.412Z,969.213501
2023-01-17T01:40:10.027Z,969.1347046
2023-01-17T01:42:08.168Z,969.2695313
2023-01-17T01:43:09.425Z,969.2061768
2023-01-17T01:44:04.785Z,969.2210693
2023-01-17T01:46:05.621Z,969.199585
2023-01-17T01:47:01.779Z,969.3173218
2023-01-17T01:48:02.902Z,969.3695068
2023-01-17T01:48:57.313Z,969.3357544
2023-01-17T01:49:57.197Z,969.3414307
2023-01-17T01:51:55.325Z,969.3596802
2023-01-17T01:52:47.224Z,969.3721924
2023-01-17T01:53:49.326Z,969.3643799
2023-01-17T01:54:50.414Z,969.3404541
2023-01-17T01:56:54.635Z,969.4232788
2023-01-17T01:57:48.961Z,969.5356445
2023-01-17T01:58:54.959Z,969.4835205
2023-01-17T01:59:53.206Z,969.5300293
2023-01-17T02:00:56.727Z,969.5198364
2023-01-17T02:01:59.973Z,969.5310669
2023-01-17T02:03:05.601Z,969.5025024
2023-01-17T02:03:59.999Z,969.5765381
2023-01-17T02:05:04.714Z,969.5300293
2023-01-17T02:06:07.275Z,969.5480347
2023-01-17T02:06:59.330Z,969.6231079
2023-01-17T02:07:56.232Z,969.6478271
2023-01-17T02:08:58.453Z,969.6273193
2023-01-17T02:09:53.046Z,969.7157593
2023-01-17T02:11:51.723Z,969.8485718
2023-01-17T02:13:28.155Z,969.7055664
2023-01-17T02:14:28.455Z,969.7485352
2023-01-17T02:17:29.501Z,969.8348389
2023-01-17T02:18:22.357Z,969.850647
2023-01-17T02:19:22.929Z,969.9084473
2023-01-17T02:21:24.121Z,969.8926392
2023-01-17T02:22:26.338Z,969.9176636
2023-01-17T02:24:05.950Z,969.8434448
2023-01-17T02:25:19.047Z,969.8809204
2023-01-17T02:26:16.671Z,969.920105
2023-01-17T02:27:16.068Z,969.8700562
2023-01-17T02:28:56.020Z,969.953125
2023-01-17T02:30:38.473Z,969.84552
2023-01-17T02:32:21.834Z,969.9723511
2023-01-17T02:33:20.402Z,970.0678101
2023-01-17T02:34:20.208Z,970.0043945
2023-01-17T02:36:10.364Z,970.180542
2023-01-17T02:36:49.557Z,970.2727051
2023-01-17T02:37:48.788Z,970.2798462
2023-01-17T02:38:50.273Z,970.3822021
2023-01-17T02:39:48.650Z,970.3152466
2023-01-17T02:40:48.051Z,970.3381348
2023-01-17T02:41:45.001Z,970.428772
2023-01-17T02:42:44.773Z,970.3858032
2023-01-17T02:43:39.916Z,970.3734131
2023-01-17T02:44:41.165Z,970.4812012
2023-01-17T02:45:39.063Z,970.5334473
2023-01-17T02:46:39.394Z,970.5287476
2023-01-17T02:47:35.722Z,970.5822144
2023-01-17T02:48:40.340Z,970.5615845
2023-01-17T02:49:36.888Z,970.6135864
2023-01-17T02:50:41.004Z,970.6828003
2023-01-17T02:51:38.661Z,970.6397095
2023-01-17T02:52:35.824Z,970.6722412
2023-01-17T02:53:33.759Z,970.8977051
2023-01-17T02:54:30.977Z,970.6812744
2023-01-17T02:56:32.660Z,970.6721802
2023-01-17T02:57:37.219Z,970.6583862
2023-01-17T02:58:38.694Z,970.8068848
2023-01-17T02:59:35.098Z,970.7092285
2023-01-17T03:00:32.261Z,970.7974854
2023-01-17T03:01:32.568Z,970.8259277
2023-01-17T03:02:29.023Z,970.8113403
2023-01-17T03:03:32.108Z,970.8032837
2023-01-17T03:04:25.735Z,970.8292236
2023-01-17T03:05:28.415Z,970.7771606
2023-01-17T03:06:20.259Z,970.8099976
2023-01-17T03:07:22.592Z,970.8800659
2023-01-17T03:09:06.426Z,970.8474731
2023-01-17T03:09:49.694Z,970.8068848
2023-01-17T03:10:46.207Z,970.861084
2023-01-17T03:11:56.124Z,970.8474731
2023-01-17T03:12:56.902Z,970.8178101
2023-01-17T03:13:54.276Z,970.9243774
2023-01-17T03:14:54.424Z,970.9650269
2023-01-17T03:17:07.696Z,970.9420166
2023-01-17T03:18:00.979Z,971.0042725
2023-01-17T03:18:56.281Z,970.9782715
2023-01-17T03:19:55.797Z,971.0303345
2023-01-17T03:22:02.512Z,971.069519
2023-01-17T03:22:59.102Z,971.0739136
2023-01-17T03:23:56.976Z,970.958252
2023-01-17T03:24:56.183Z,971.1202393
2023-01-17T03:25:55.776Z,971.0587769
2023-01-17T03:26:57.301Z,971.0812988
2023-01-17T03:27:50.216Z,971.1015625
2023-01-17T03:28:55.070Z,971.0856934
2023-01-17T03:29:52.411Z,971.0876465
2023-01-17T03:31:54.076Z,971.1637573
2023-01-17T03:34:10.886Z,971.1628418
2023-01-17T03:34:19.077Z,971.133728
2023-01-17T03:35:19.346Z,971.1365356
2023-01-17T03:36:15.422Z,971.194397
2023-01-17T03:37:13.422Z,971.1422729
2023-01-17T03:38:15.178Z,971.1726685
2023-01-17T03:39:17.904Z,971.2575073
2023-01-17T03:41:10.066Z,971.1317139
2023-01-17T03:42:11.092Z,971.2199707
2023-01-17T03:43:07.300Z,971.1439209
2023-01-17T03:44:11.075Z,971.2321777
2023-01-17T03:46:03.239Z,971.2220459
2023-01-17T03:47:04.319Z,971.3103027
2023-01-17T03:47:56.345Z,971.2943726
2023-01-17T03:48:54.741Z,971.2764282
2023-01-17T03:49:53.803Z,971.2697144
2023-01-17T03:50:49.188Z,971.1591187
2023-01-17T03:51:50.836Z,971.255127
2023-01-17T03:52:45.201Z,971.2473145
2023-01-17T03:53:47.722Z,971.3174438
2023-01-17T03:54:42.202Z,971.2754517
2023-01-17T03:55:42.506Z,971.3376465
2023-01-17T03:56:41.238Z,971.3521729
2023-01-17T03:57:44.780Z,971.3305664
2023-01-17T03:58:40.358Z,971.3068848
2023-01-17T03:59:42.931Z,971.3927612
2023-01-17T04:00:38.449Z,971.3602905
2023-01-17T04:02:24.898Z,971.3674927
2023-01-17T04:03:05.369Z,971.4266357
2023-01-17T04:04:15.773Z,971.4685669
2023-01-17T04:05:13.523Z,971.4888916
2023-01-17T04:06:13.847Z,971.52948
2023-01-17T04:07:08.416Z,971.5134888
2023-01-17T04:08:09.572Z,971.5656128
2023-01-17T04:09:11.832Z,971.6082153
2023-01-17T04:10:10.356Z,971.5980225
2023-01-17T04:11:11.419Z,971.538147
2023-01-17T04:12:07.495Z,971.5256958
2023-01-17T04:13:15.481Z,971.5256958
2023-01-17T04:14:10.526Z,971.541626
2023-01-17T04:16:11.764Z,971.5859375
2023-01-17T04:17:14.180Z,971.5540771
2023-01-17T04:18:14.891Z,971.4735718
2023-01-17T04:19:09.292Z,971.5314331
2023-01-17T04:20:14.722Z,971.5496826
2023-01-17T04:21:06.770Z,971.5337524
2023-01-17T04:22:02.217Z,971.5974121
2023-01-17T04:23:01.617Z,971.5588989
2023-01-17T04:23:59.714Z,971.6088867
2023-01-17T04:25:58.624Z,971.5264282
2023-01-17T04:27:01.224Z,971.5003662
2023-01-17T04:28:04.098Z,971.4922485
2023-01-17T04:29:06.662Z,971.5626831
2023-01-17T04:31:05.104Z,971.4851685
2023-01-17T04:32:01.893Z,971.5836182
2023-01-17T04:32:54.730Z,971.4953003
2023-01-17T04:33:59.044Z,971.5473633
2023-01-17T04:34:50.982Z,971.5054932
2023-01-17T04:37:11.414Z,971.5409546
2023-01-17T04:37:17.112Z,971.6624146
2023-01-17T04:38:18.718Z,971.6434326
2023-01-17T04:39:18.703Z,971.6333618
2023-01-17T04:41:17.430Z,971.6860962
2023-01-17T04:42:11.952Z,971.6384277
2023-01-17T04:43:11.479Z,971.666748
2023-01-17T04:44:05.886Z,971.6870117
2023-01-17T04:45:59.887Z,971.6768799
2023-01-17T04:47:05.664Z,971.7469482
2023-01-17T04:47:59.090Z,971.7145386
2023-01-17T04:49:02.934Z,971.7578125
2023-01-17T04:51:00.528Z,971.7838135
2023-01-17T04:52:05.781Z,971.7380981
2023-01-17T04:53:03.455Z,971.7665405
2023-01-17T04:54:02.972Z,971.8071289
2023-01-17T04:55:58.376Z,971.8236084
2023-01-17T04:56:54.943Z,971.789856
2023-01-17T04:57:54.002Z,971.8178711
2023-01-17T04:59:00.117Z,971.7600098
2023-01-17T04:59:57.241Z,971.7701416
2023-01-17T05:01:01.688Z,971.7579956
2023-01-17T05:02:00.657Z,971.8323364
2023-01-17T05:03:40.067Z,971.9098511
2023-01-17T05:08:09.476Z,971.8447876
2023-01-17T05:08:18.991Z,971.840332
2023-01-17T05:09:19.142Z,971.8929443
2023-01-17T05:11:22.823Z,971.8294678
2023-01-17T05:12:18.341Z,971.9005737
2023-01-17T05:13:19.468Z,971.9137573
2023-01-17T05:14:23.031Z,971.9506226
2023-01-17T05:15:16.360Z,971.9053345
2023-01-17T05:16:15.329Z,971.8856812
2023-01-17T05:17:11.646Z,972.0183105
2023-01-17T05:18:12.439Z,971.9907837
2023-01-17T05:19:08.323Z,971.9849854
2023-01-17T05:20:07.556Z,972.0029907
2023-01-17T05:21:01.866Z,971.9835815
2023-01-17T05:22:02.193Z,972.0579834
2023-01-17T05:23:07.694Z,972.0704956
2023-01-17T05:24:11.639Z,971.9899902
2023-01-17T05:26:03.327Z,972.0256348
2023-01-17T05:27:01.562Z,972.0878296
2023-01-17T05:28:02.205Z,972.0941162
2023-01-17T05:28:58.288Z,972.0545044
2023-01-17T05:31:03.358Z,972.1520386
2023-01-17T05:32:04.805Z,972.0999756
2023-01-17T05:33:12.700Z,972.2040405
2023-01-17T05:34:14.626Z,972.1259155
2023-01-17T05:36:10.778Z,972.1925049
2023-01-17T05:37:13.514Z,972.1730957
2023-01-17T05:38:12.801Z,972.1934204
2023-01-17T05:39:12.668Z,972.2252197
2023-01-17T05:42:17.647Z,972.1564331
2023-01-17T05:42:38.350Z,972.1274414
2023-01-17T05:43:38.346Z,972.078125
2023-01-17T05:43:52.365Z,972.1099854
2023-01-17T05:44:53.502Z,972.1576538
2023-01-17T05:45:54.673Z,972.1881104
2023-01-17T05:46:49.836Z,972.1904907
2023-01-17T05:47:49.553Z,972.1369629
2023-01-17T05:48:48.587Z,972.2658081
2023-01-17T05:49:49.978Z,972.2440796
2023-01-17T05:51:01.250Z,972.2845459
2023-01-17T05:51:54.949Z,972.3048706
2023-01-17T05:52:52.933Z,972.2729492
2023-01-17T05:53:53.928Z,972.2787476
2023-01-17T05:54:55.767Z,972.260498
2023-01-17T05:55:48.198Z,972.3929443
2023-01-17T05:56:49.885Z,972.3612671
2023-01-17T05:57:45.176Z,972.4051514
2023-01-17T05:58:47.166Z,972.4234619
2023-01-17T05:59:41.415Z,972.465332
2023-01-17T06:01:38.300Z,972.4696655
2023-01-17T06:02:39.794Z,972.4754639
2023-01-17T06:03:41.098Z,972.4349976
2023-01-17T06:04:43.273Z,972.4846802
2023-01-17T06:06:50.211Z,972.4934082
2023-01-17T06:07:52.451Z,972.4615479
2023-01-17T06:08:45.383Z,972.5101318
2023-01-17T06:09:48.093Z,972.4977417
2023-01-17T06:11:45.054Z,972.5535889
2023-01-17T06:12:39.270Z,972.5737305
2023-01-17T06:13:36.010Z,972.607666
2023-01-17T06:14:37.014Z,972.6395264
2023-01-17T06:15:34.313Z,972.5651855
2023-01-17T06:16:33.823Z,972.6172485
2023-01-17T06:18:14.353Z,972.625
2023-01-17T06:18:47.974Z,972.5845337
2023-01-17T06:19:48.586Z,972.7040405
2023-01-17T06:20:43.788Z,972.6679688
2023-01-17T06:21:48.277Z,972.6482544
2023-01-17T06:22:51.284Z,972.6265869
2023-01-17T06:23:52.528Z,972.6829834
2023-01-17T06:24:53.838Z,972.6230469
2023-01-17T06:27:00.430Z,972.6612549
2023-01-17T06:27:57.768Z,972.7098389
2023-01-17T06:29:08.574Z,972.6433105
2023-01-17T06:29:57.728Z,972.6425171
2023-01-17T06:30:52.385Z,972.6741943
2023-01-17T06:31:56.410Z,972.7503662
2023-01-17T06:32:52.992Z,972.6887207
2023-01-17T06:33:55.123Z,972.6467285
2023-01-17T06:34:50.891Z,972.7089844
2023-01-17T06:36:51.248Z,972.7315674
2023-01-17T06:37:52.992Z,972.7098389
2023-01-17T06:38:49.377Z,972.7459106
2023-01-17T06:39:55.697Z,972.815918
2023-01-17T06:41:52.187Z,972.8081055
2023-01-17T06:42:47.630Z,972.7999878
2023-01-17T06:43:49.785Z,972.894043
2023-01-17T06:44:43.042Z,972.894043
2023-01-17T06:46:49.023Z,972.9238892
2023-01-17T06:47:47.753Z,972.9476318
2023-01-17T06:49:55.990Z,972.9499512
2023-01-17T06:50:03.448Z,972.9230957
2023-01-17T06:51:05.740Z,972.9472046
2023-01-17T06:52:06.151Z,972.9709473
2023-01-17T06:53:09.519Z,972.9631348
2023-01-17T06:54:04.849Z,972.9254761
2023-01-17T06:56:11.823Z,972.9385376
2023-01-17T06:57:08.620Z,972.8826294
2023-01-17T06:58:11.184Z,972.8573608
2023-01-17T06:59:13.847Z,972.8955688
2023-01-17T07:01:15.126Z,972.972168
2023-01-17T07:02:17.915Z,972.864502
2023-01-17T07:03:20.620Z,972.8446655
2023-01-17T07:04:15.972Z,972.8529053
2023-01-17T07:06:24.967Z,972.8933105
2023-01-17T07:07:21.870Z,972.914978
2023-01-17T07:08:27.859Z,972.875061
2023-01-17T07:09:27.017Z,972.914978
2023-01-17T07:11:30.730Z,972.9771729
2023-01-17T07:12:25.634Z,972.9251709
2023-01-17T07:13:31.255Z,972.9352417
2023-01-17T07:14:26.183Z,972.9612427
2023-01-17T07:15:52.492Z,973.03125
2023-01-17T07:16:38.464Z,973.0370483
2023-01-17T07:17:46.322Z,973.071228
2023-01-17T07:18:46.394Z,973.0471802
2023-01-17T07:19:44.418Z,973.1015625
2023-01-17T07:21:42.342Z,973.0817261
2023-01-17T07:22:42.290Z,973.1621704
2023-01-17T07:23:37.788Z,973.2220459
2023-01-17T07:24:40.576Z,973.2061157
2023-01-17T07:25:36.178Z,973.208374
2023-01-17T07:26:47.843Z,973.1264038
2023-01-17T07:27:39.505Z,973.1221924
2023-01-17T07:28:36.394Z,973.2199707
2023-01-17T07:29:54.350Z,973.1737671
2023-01-17T07:30:52.654Z,973.2177124
2023-01-17T07:32:02.792Z,973.1838989
2023-01-17T07:32:58.081Z,973.1419678
2023-01-17T07:33:56.455Z,973.1983032
2023-01-17T07:35:01.551Z,973.2142334
2023-01-17T07:36:00.722Z,973.2704468
2023-01-17T07:36:58.333Z,973.2025146
2023-01-17T07:37:59.198Z,973.2363892
2023-01-17T07:38:59.741Z,973.1726685
2023-01-17T07:40:03.322Z,973.1706543
2023-01-17T07:41:04.939Z,973.2129517
2023-01-17T07:42:15.351Z,973.2312622
2023-01-17T07:43:08.817Z,973.1531372
2023-01-17T07:44:07.398Z,973.2406006
2023-01-17T07:46:11.279Z,973.1765137
2023-01-17T07:47:16.014Z,973.0728149
2023-01-17T07:48:08.574Z,973.1010742
2023-01-17T07:49:47.538Z,973.1361084
2023-01-17T07:51:39.413Z,973.1508789
2023-01-17T07:52:25.498Z,973.1264038
2023-01-17T07:53:24.566Z,973.1559448
2023-01-17T07:54:21.149Z,973.1582642
2023-01-17T07:55:21.807Z,973.1741333
2023-01-17T07:56:20.973Z,973.1928101
2023-01-17T07:57:24.863Z,973.178894
2023-01-17T07:58:21.025Z,973.1166992
2023-01-17T07:59:22.238Z,973.1645508
2023-01-17T08:01:19.353Z,973.1342163
2023-01-17T08:02:16.867Z,973.2224121
2023-01-17T08:03:19.922Z,973.1768799
2023-01-17T08:04:18.116Z,973.1349487
2023-01-17T08:06:23.284Z,973.1132202
2023-01-17T08:07:24.497Z,973.1671753
2023-01-17T08:08:24.744Z,973.1454468
2023-01-17T08:09:31.947Z,973.1397095
2023-01-17T08:10:39.900Z,973.1757813
2023-01-17T08:11:40.457Z,973.1322021
2023-01-17T08:12:41.442Z,973.1026611
2023-01-17T08:13:45.919Z,973.0925293
2023-01-17T08:14:43.345Z,973.1286621
2023-01-17T08:15:41.044Z,973.0786133
2023-01-17T08:16:40.628Z,973.0245361
2023-01-17T08:17:44.121Z,973.0665894
2023-01-17T08:18:43.712Z,973.0563965
2023-01-17T08:19:48.105Z,973.1582642
2023-01-17T08:21:45.253Z,973.0479736
2023-01-17T08:22:44.235Z,973.0817261
2023-01-17T08:23:43.828Z,973.1077881
2023-01-17T08:24:46.392Z,973.0739136
2023-01-17T08:27:15.255Z,973.135376
2023-01-17T08:28:13.014Z,973.0062256
2023-01-17T08:29:17.372Z,973.0039673
2023-01-17T08:30:51.718Z,973.100647
2023-01-17T08:33:15.036Z,973.0881348
2023-01-17T08:34:06.909Z,973.2323608
2023-01-17T08:36:01.056Z,973.1865845
2023-01-17T08:36:59.769Z,973.2323608
2023-01-17T08:37:02.403Z,973.1628418
2023-01-17T08:37:55.201Z,973.0896606
2023-01-17T08:38:53.296Z,973.126709
2023-01-17T08:40:02.299Z,973.1489868
2023-01-17T08:40:53.525Z,973.2053833
2023-01-17T08:41:55.399Z,973.1642456
2023-01-17T08:42:51.898Z,973.2284546
2023-01-17T08:43:50.461Z,973.208252
2023-01-17T08:45:53.942Z,973.1149902
2023-01-17T08:46:48.160Z,973.2176514
2023-01-17T08:47:51.461Z,973.185791
2023-01-17T08:48:48.508Z,973.2218628
2023-01-17T08:50:45.743Z,973.3303833
2023-01-17T08:51:47.328Z,973.2884521
2023-01-17T08:52:45.351Z,973.3085938
2023-01-17T08:53:47.029Z,973.3171997
2023-01-17T08:54:42.563Z,973.3234253
2023-01-17T08:55:51.911Z,973.2872925
2023-01-17T08:56:43.171Z,973.2693481
2023-01-17T08:57:42.295Z,973.3032837
2023-01-17T08:58:42.551Z,973.3292236
2023-01-17T08:59:38.319Z,973.387207
2023-01-17T09:01:40.469Z,973.3754883
2023-01-17T09:03:10.640Z,973.3839722
2023-01-17T09:03:50.711Z,973.4099731
2023-01-17T09:04:48.820Z,973.4216919
2023-01-17T09:05:52.816Z,973.3739014
2023-01-17T09:06:50.271Z,973.4042358
2023-01-17T09:07:53.820Z,973.4224243
2023-01-17T09:08:51.970Z,973.3862305
2023-01-17T09:10:58.929Z,973.3543701
2023-01-17T09:11:55.718Z,973.364502
2023-01-17T09:12:55.390Z,973.3143921
2023-01-17T09:13:55.878Z,973.3427124
2023-01-17T09:15:00.289Z,973.3664551
2023-01-17T09:15:54.525Z,973.4526367
2023-01-17T09:16:59.185Z,973.3563843
2023-01-17T09:17:54.548Z,973.3723145
2023-01-17T09:18:55.598Z,973.4224243
2023-01-17T09:19:55.629Z,973.4099731
2023-01-17T09:20:53.145Z,973.3983765
2023-01-17T09:22:00.725Z,973.3824463
2023-01-17T09:22:51.432Z,973.4403076
2023-01-17T09:23:52.066Z,973.4181519
2023-01-17T09:24:53.694Z,973.4159546
2023-01-17T09:25:48.949Z,973.4057617
2023-01-17T09:26:51.308Z,973.4318848
2023-01-17T09:27:49.535Z,973.4159546
2023-01-17T09:29:13.359Z,973.4760742
2023-01-17T09:30:57.884Z,973.5759277
2023-01-17T09:31:58.882Z,973.5215454
2023-01-17T09:33:01.115Z,973.4702148
2023-01-17T09:33:55.861Z,973.4702148
2023-01-17T09:34:57.705Z,973.4418945
2023-01-17T09:35:56.245Z,973.4998169
2023-01-17T09:37:00.255Z,973.5079956
2023-01-17T09:37:59.766Z,973.4737549
2023-01-17T09:39:00.712Z,973.5678101
2023-01-17T09:40:58.419Z,973.4987793
2023-01-17T09:42:01.763Z,973.5892334
2023-01-17T09:42:55.465Z,973.4927979
2023-01-17T09:43:59.633Z,973.4849854
2023-01-17T09:44:52.222Z,973.4625244
2023-01-17T09:45:54.523Z,973.4943848
2023-01-17T09:46:49.820Z,973.5565796
2023-01-17T09:47:52.883Z,973.4823608
2023-01-17T09:48:50.217Z,973.423645
2023-01-17T09:50:48.164Z,973.5321045
2023-01-17T09:51:50.959Z,973.4998169
2023-01-17T09:52:48.932Z,973.4796143
2023-01-17T09:53:51.836Z,973.5158081
2023-01-17T09:54:52.518Z,973.4874268
2023-01-17T09:55:46.964Z,973.4671631
2023-01-17T09:56:46.756Z,973.5432739
2023-01-17T09:57:43.152Z,973.5829468
2023-01-17T09:58:44.586Z,973.4651489
2023-01-17T09:59:45.672Z,973.4528198
2023-01-17T10:01:41.585Z,973.4290771
2023-01-17T10:02:42.164Z,973.4348145
2023-01-17T10:03:37.707Z,973.4324951
2023-01-17T10:04:38.752Z,973.4643555
2023-01-17T10:06:37.031Z,973.407959
2023-01-17T10:07:33.279Z,973.5362549
2023-01-17T10:09:23.076Z,973.4790039
2023-01-17T10:10:06.076Z,973.5306396
2023-01-17T10:11:05.258Z,973.4703369
2023-01-17T10:12:06.696Z,973.4906006
2023-01-17T10:13:01.975Z,973.5189819
2023-01-17T10:14:02.573Z,973.5731201
2023-01-17T10:15:04.550Z,973.5093994
2023-01-17T10:16:03.972Z,973.5599976
2023-01-17T10:17:04.315Z,973.538269
2023-01-17T10:18:07.000Z,973.5825195
2023-01-17T10:19:03.960Z,973.6105957
2023-01-17T10:19:58.246Z,973.616394
2023-01-17T10:21:03.863Z,973.5825195
2023-01-17T10:22:02.069Z,973.590332
2023-01-17T10:23:00.203Z,973.6669312
2023-01-17T10:23:59.369Z,973.5931396
2023-01-17T10:25:59.362Z,973.5751343
2023-01-17T10:26:57.632Z,973.595459
2023-01-17T10:28:02.549Z,973.595459
2023-01-17T10:28:55.688Z,973.6691895
2023-01-17T10:30:55.020Z,973.7127075
2023-01-17T10:32:04.640Z,973.6583862
2023-01-17T10:32:53.163Z,973.7019043
2023-01-17T10:33:57.471Z,973.6550293
2023-01-17T10:35:57.726Z,973.6860962
2023-01-17T10:37:05.061Z,973.6802979
2023-01-17T10:38:30.671Z,973.7622681
2023-01-17T10:39:11.303Z,973.7159424
2023-01-17T10:41:09.130Z,973.7376709
2023-01-17T10:42:08.633Z,973.7536011
2023-01-17T10:43:11.171Z,973.7034302
2023-01-17T10:44:07.463Z,973.7396851
2023-01-17T10:46:05.817Z,973.701416
2023-01-17T10:47:06.337Z,973.7173462
2023-01-17T10:48:02.374Z,973.6551514
2023-01-17T10:49:03.389Z,973.7072754
2023-01-17T10:51:01.668Z,973.7072754
2023-01-17T10:51:59.170Z,973.7173462
2023-01-17T10:52:59.689Z,973.6730957
2023-01-17T10:53:57.754Z,973.6513062
2023-01-17T10:54:57.084Z,973.6970825
2023-01-17T10:55:53.273Z,973.6165771
2023-01-17T10:57:00.610Z,973.6165771
2023-01-17T10:57:56.358Z,973.5465698
2023-01-17T10:58:58.184Z,973.6000977
2023-01-17T10:59:53.570Z,973.5267334
2023-01-17T11:00:56.818Z,973.538269
2023-01-17T11:02:11.588Z,973.6222534
2023-01-17T11:03:15.044Z,973.5904541
2023-01-17T11:04:11.261Z,973.5928345
2023-01-17T11:06:10.155Z,973.4962769
2023-01-17T11:07:11.814Z,973.5304565
2023-01-17T11:08:18.030Z,973.5565796
2023-01-17T11:09:11.497Z,973.4760132
2023-01-17T11:10:13.973Z,973.473877
2023-01-17T11:11:10.472Z,973.5339355
2023-01-17T11:12:13.758Z,973.4874878
2023-01-17T11:13:09.868Z,973.4556885
2023-01-17T11:14:12.974Z,973.4637451
2023-01-17T11:15:07.328Z,973.4593506
2023-01-17T11:16:08.621Z,973.3754883
2023-01-17T11:17:12.085Z,973.3334351
2023-01-17T11:18:15.222Z,973.3856201
2023-01-17T11:19:17.738Z,973.4499512
2023-01-17T11:21:46.722Z,973.4215088
2023-01-17T11:24:08.881Z,973.4951782
2023-01-17T11:24:48.202Z,973.3581543
2023-01-17T11:25:53.741Z,973.3535767
2023-01-17T11:26:52.965Z,973.427002
2023-01-17T11:27:50.183Z,973.4575195
2023-01-17T11:28:55.050Z,973.4257813
2023-01-17T11:30:54.649Z,973.4223633
2023-01-17T11:31:51.957Z,973.390564
2023-01-17T11:32:52.562Z,973.3563232
2023-01-17T11:33:56.558Z,973.402832
2023-01-17T11:34:51.894Z,973.442627
2023-01-17T11:35:53.952Z,973.3746338
2023-01-17T11:36:53.973Z,973.4472046
2023-01-17T11:37:55.967Z,973.3855591
2023-01-17T11:38:54.236Z,973.3459473
2023-01-17T11:39:24.008Z,973.4038086
2023-01-17T11:40:24.913Z,973.373291
2023-01-17T11:41:16.757Z,973.3753662
2023-01-17T11:42:18.472Z,973.3357544
2023-01-17T11:43:17.063Z,973.4059448
2023-01-17T11:44:19.864Z,973.399353
2023-01-17T11:46:14.125Z,973.3383789
2023-01-17T11:47:09.724Z,973.4020386
2023-01-17T11:48:10.941Z,973.383728
2023-01-17T11:49:06.334Z,973.3214111
2023-01-17T11:50:08.575Z,973.3192749
2023-01-17T11:51:03.589Z,973.3294678
2023-01-17T11:52:02.871Z,973.397522
2023-01-17T11:52:58.272Z,973.3396606
2023-01-17T11:54:11.852Z,973.243103
2023-01-17T11:55:41.167Z,973.2785645
2023-01-17T11:56:19.322Z,973.2385864
2023-01-17T11:57:16.619Z,973.2467041
2023-01-17T11:58:14.728Z,973.3294678
2023-01-17T11:59:16.261Z,973.2385864
2023-01-17T12:00:16.282Z,973.2341919
2023-01-17T12:01:12.875Z,973.282959
2023-01-17T12:02:16.943Z,973.2410278
2023-01-17T12:03:16.173Z,973.2023315
2023-01-17T12:04:16.374Z,973.1342163
2023-01-17T12:06:11.584Z,973.2988892
2023-01-17T12:07:11.340Z,973.1965332
2023-01-17T12:08:08.839Z,973.2670288
2023-01-17T12:09:08.431Z,973.2226563
2023-01-17T12:10:05.168Z,973.2525024
2023-01-17T12:11:08.274Z,973.194519
2023-01-17T12:12:05.503Z,973.1525269
2023-01-17T12:13:01.391Z,973.2182617
2023-01-17T12:14:08.589Z,973.1785889
2023-01-17T12:16:02.305Z,973.1342163
2023-01-17T12:17:05.414Z,973.1741333